createdAt,value
2023-11-12T00:01:51.590Z,6.25
2023-11-12T00:04:19.097Z,4.65
2023-11-12T00:06:45.618Z,3.67
2023-11-12T00:09:12.392Z,3.47
2023-11-12T00:11:41.928Z,4.15
2023-11-12T00:14:08.637Z,4.13
2023-11-12T00:16:35.605Z,3.92
2023-11-12T00:19:05.367Z,5.32
2023-11-12T00:21:31.864Z,4.45
2023-11-12T00:23:58.425Z,7.38
2023-11-12T00:26:25.201Z,4.03
2023-11-12T00:28:51.905Z,5.45
2023-11-12T00:31:18.812Z,7.55
2023-11-12T00:33:47.079Z,9.15
2023-11-12T00:36:15.139Z,4.95
2023-11-12T00:38:41.800Z,4.30
2023-11-12T00:41:10.498Z,4.13
2023-11-12T00:43:37.948Z,4.65
2023-11-12T00:46:05.433Z,5.38
2023-11-12T00:48:32.161Z,5.55
2023-11-12T00:50:58.617Z,5.30
2023-11-12T00:53:25.380Z,7.45
2023-11-12T00:55:51.972Z,7.38
2023-11-12T00:58:18.496Z,8.20
2023-11-12T01:00:44.964Z,5.60
2023-11-12T01:03:11.591Z,6.25
2023-11-12T01:05:40.680Z,7.10
2023-11-12T01:08:08.068Z,4.60
2023-11-12T01:10:34.664Z,5.75
2023-11-12T01:13:01.482Z,4.45
2023-11-12T01:15:30.368Z,7.15
2023-11-12T01:17:57.136Z,7.47
2023-11-12T01:20:24.083Z,6.40
2023-11-12T01:22:50.889Z,7.18
2023-11-12T01:25:17.384Z,4.47
2023-11-12T01:27:43.952Z,7.15
2023-11-12T01:30:10.984Z,9.93
2023-11-12T01:32:37.543Z,5.95
2023-11-12T01:35:04.542Z,6.75
2023-11-12T01:37:31.112Z,5.57
2023-11-12T01:39:57.646Z,9.70
2023-11-12T01:42:25.698Z,5.25
2023-11-12T01:44:52.297Z,6.70
2023-11-12T01:47:20.080Z,6.35
2023-11-12T01:49:47.609Z,8.93
2023-11-12T01:52:17.898Z,5.90
2023-11-12T01:54:44.943Z,6.70
2023-11-12T01:57:11.587Z,6.35
2023-11-12T01:59:38.282Z,5.75
2023-11-12T02:02:05.149Z,6.20
2023-11-12T02:04:31.923Z,6.32
2023-11-12T02:07:00.909Z,6.07
2023-11-12T02:09:27.490Z,6.47
2023-11-12T02:11:55.356Z,6.88
2023-11-12T02:14:24.744Z,5.88
2023-11-12T02:16:54.756Z,7.38
2023-11-12T02:19:29.048Z,7.47
2023-11-12T02:21:56.505Z,5.03
2023-11-12T02:24:26.018Z,6.00
2023-11-12T02:26:52.944Z,6.40
2023-11-12T02:29:19.716Z,8.10
2023-11-12T02:31:46.211Z,8.50
2023-11-12T02:34:12.717Z,7.18
2023-11-12T02:36:39.698Z,9.38
2023-11-12T02:39:09.361Z,7.28
2023-11-12T02:41:39.407Z,8.75
2023-11-12T02:44:10.129Z,8.57
2023-11-12T02:46:37.675Z,6.20
2023-11-12T02:49:32.340Z,6.47
2023-11-12T02:51:58.858Z,8.27
2023-11-12T02:54:26.229Z,9.38
2023-11-12T02:56:52.793Z,10.32
2023-11-12T02:59:20.227Z,9.20
2023-11-12T03:01:46.767Z,10.40
2023-11-12T03:04:13.405Z,7.43
2023-11-12T03:06:39.970Z,7.22
2023-11-12T03:09:06.543Z,7.32
2023-11-12T03:11:33.219Z,7.38
2023-11-12T03:13:59.886Z,9.25
2023-11-12T03:16:26.478Z,13.50
2023-11-12T03:18:54.227Z,9.15
2023-11-12T03:21:20.731Z,8.18
2023-11-12T03:23:47.248Z,8.52
2023-11-12T03:26:13.801Z,9.50
2023-11-12T03:28:40.343Z,9.10
2023-11-12T03:31:06.853Z,9.15
2023-11-12T03:33:33.723Z,8.50
2023-11-12T03:36:00.940Z,8.57
2023-11-12T03:38:27.405Z,8.32
2023-11-12T03:40:53.911Z,7.55
2023-11-12T03:43:20.368Z,9.05
2023-11-12T03:45:46.882Z,10.25
2023-11-12T03:48:13.435Z,8.35
2023-11-12T03:50:40.016Z,7.93
2023-11-12T03:53:06.567Z,8.65
2023-11-12T03:55:33.339Z,9.07
2023-11-12T03:57:59.890Z,8.07
2023-11-12T04:00:26.444Z,11.43
2023-11-12T04:02:53.050Z,8.23
2023-11-12T04:05:19.736Z,9.45
2023-11-12T04:07:46.265Z,8.10
2023-11-12T04:10:13.170Z,8.02
2023-11-12T04:12:39.803Z,9.38
2023-11-12T04:15:07.025Z,8.45
2023-11-12T04:17:33.847Z,8.73
2023-11-12T04:20:01.905Z,12.02
2023-11-12T04:22:28.374Z,8.52
2023-11-12T04:24:54.882Z,8.43
2023-11-12T04:27:23.090Z,9.93
2023-11-12T04:29:49.627Z,8.50
2023-11-12T04:32:16.216Z,9.75
2023-11-12T04:34:44.118Z,8.25
2023-11-12T04:37:10.817Z,7.95
2023-11-12T04:39:37.488Z,6.90
2023-11-12T04:42:04.088Z,8.48
2023-11-12T04:44:30.576Z,8.50
2023-11-12T04:46:57.066Z,10.40
2023-11-12T04:49:25.378Z,10.77
2023-11-12T04:51:52.709Z,8.73
2023-11-12T04:54:20.644Z,9.88
2023-11-12T04:56:47.784Z,10.07
2023-11-12T04:59:14.947Z,11.63
2023-11-12T05:01:41.465Z,11.23
2023-11-12T05:04:08.105Z,9.48
2023-11-12T05:06:34.726Z,9.63
2023-11-12T05:09:01.279Z,9.82
2023-11-12T05:11:27.802Z,8.82
2023-11-12T05:13:54.349Z,6.18
2023-11-12T05:16:21.021Z,8.68
2023-11-12T05:18:48.232Z,10.18
2023-11-12T05:21:14.800Z,12.15
2023-11-12T05:23:41.362Z,6.43
2023-11-12T05:26:08.012Z,6.03
2023-11-12T05:28:34.483Z,5.60
2023-11-12T05:31:01.091Z,7.45
2023-11-12T05:33:27.701Z,6.75
2023-11-12T05:35:54.371Z,6.80
2023-11-12T05:38:21.824Z,7.50
2023-11-12T05:40:48.308Z,9.95
2023-11-12T05:43:14.965Z,7.07
2023-11-12T05:45:41.591Z,5.78
2023-11-12T05:48:10.989Z,7.78
2023-11-12T05:50:38.519Z,6.10
2023-11-12T05:53:05.009Z,6.32
2023-11-12T05:55:31.505Z,6.28
2023-11-12T05:57:59.108Z,5.30
2023-11-12T06:00:25.699Z,7.22
2023-11-12T06:02:52.320Z,6.53
2023-11-12T06:05:18.886Z,12.10
2023-11-12T06:07:45.833Z,6.55
2023-11-12T06:10:12.674Z,6.32
2023-11-12T06:12:39.237Z,5.50
2023-11-12T06:15:07.183Z,9.40
2023-11-12T06:17:33.880Z,8.18
2023-11-12T06:20:00.558Z,10.10
2023-11-12T06:22:27.098Z,9.77
2023-11-12T06:24:53.628Z,8.75
2023-11-12T06:27:20.750Z,5.97
2023-11-12T06:29:47.869Z,11.07
2023-11-12T06:32:14.427Z,8.63
2023-11-12T06:34:41.182Z,6.07
2023-11-12T06:37:07.686Z,9.27
2023-11-12T06:39:34.330Z,6.43
2023-11-12T06:42:01.199Z,7.55
2023-11-12T06:44:27.797Z,6.78
2023-11-12T06:46:54.610Z,7.35
2023-11-12T06:49:21.262Z,7.07
2023-11-12T06:51:47.813Z,7.40
2023-11-12T06:54:14.392Z,7.40
2023-11-12T06:56:40.947Z,5.55
2023-11-12T06:59:07.600Z,5.45
2023-11-12T07:01:34.224Z,6.93
2023-11-12T07:04:01.444Z,6.50
2023-11-12T07:06:29.198Z,8.65
2023-11-12T07:08:56.449Z,6.45
2023-11-12T07:11:22.979Z,6.35
2023-11-12T07:13:49.487Z,6.40
2023-11-12T07:16:18.201Z,7.85
2023-11-12T07:18:53.580Z,7.03
2023-11-12T07:21:28.835Z,5.15
2023-11-12T07:23:56.252Z,7.55
2023-11-12T07:26:24.436Z,5.75
2023-11-12T07:28:52.163Z,5.40
2023-11-12T07:31:21.086Z,9.23
2023-11-12T07:33:47.675Z,4.78
2023-11-12T07:36:14.602Z,6.35
2023-11-12T07:38:41.401Z,6.15
2023-11-12T07:41:08.870Z,5.38
2023-11-12T07:43:36.909Z,5.00
2023-11-12T07:46:06.844Z,6.85
2023-11-12T07:48:34.209Z,7.22
2023-11-12T07:51:01.511Z,5.95
2023-11-12T07:53:28.322Z,5.63
2023-11-12T07:55:55.164Z,6.22
2023-11-12T07:58:21.798Z,6.75
2023-11-12T08:00:48.405Z,4.43
2023-11-12T08:03:15.250Z,4.63
2023-11-12T08:05:41.892Z,3.80
2023-11-12T08:08:09.155Z,4.25
2023-11-12T08:10:38.331Z,4.45
2023-11-12T08:13:05.294Z,5.40
2023-11-12T08:15:31.939Z,4.72
2023-11-12T08:17:58.493Z,6.85
2023-11-12T08:20:25.150Z,6.40
2023-11-12T08:22:51.790Z,8.20
2023-11-12T08:25:18.724Z,7.45
2023-11-12T08:27:45.330Z,6.07
2023-11-12T08:30:12.088Z,6.00
2023-11-12T08:32:40.110Z,5.10
2023-11-12T08:35:07.178Z,5.35
2023-11-12T08:37:33.732Z,13.18
2023-11-12T08:40:00.313Z,14.98
2023-11-12T08:42:27.959Z,9.40
2023-11-12T08:44:55.911Z,7.72
2023-11-12T08:47:22.478Z,7.68
2023-11-12T08:49:49.038Z,6.03
2023-11-12T08:52:16.119Z,6.25
2023-11-12T08:54:43.211Z,5.15
2023-11-12T08:57:10.666Z,6.53
2023-11-12T08:59:37.982Z,5.75
2023-11-12T09:02:07.404Z,6.20
2023-11-12T09:04:35.562Z,7.75
2023-11-12T09:07:03.123Z,8.82
2023-11-12T09:09:29.658Z,10.05
2023-11-12T09:11:57.542Z,9.55
2023-11-12T09:14:24.125Z,8.55
2023-11-12T09:16:50.657Z,8.88
2023-11-12T09:19:17.281Z,7.03
2023-11-12T09:21:43.865Z,5.70
2023-11-12T09:24:10.511Z,7.15
2023-11-12T09:26:37.097Z,5.93
2023-11-12T09:29:03.758Z,5.90
2023-11-12T09:31:30.729Z,6.43
2023-11-12T09:33:58.876Z,6.90
2023-11-12T09:36:25.591Z,5.10
2023-11-12T09:38:52.284Z,5.05
2023-11-12T09:41:22.871Z,4.57
2023-11-12T09:43:51.925Z,5.55
2023-11-12T09:46:21.115Z,4.68
2023-11-12T09:48:47.958Z,6.60
2023-11-12T09:51:14.896Z,3.85
2023-11-12T09:53:44.814Z,5.45
2023-11-12T09:56:11.421Z,4.07
2023-11-12T09:58:39.296Z,4.70
2023-11-12T10:01:08.340Z,4.55
2023-11-12T10:03:36.185Z,4.63
2023-11-12T10:06:06.881Z,4.03
2023-11-12T10:08:36.800Z,3.90
2023-11-12T10:11:17.900Z,4.90
2023-11-12T10:13:45.016Z,2.72
2023-11-12T10:16:31.425Z,4.88
2023-11-12T10:19:15.384Z,3.45
2023-11-12T10:21:59.380Z,5.95
2023-11-12T10:24:30.605Z,3.70
2023-11-12T10:27:01.571Z,6.57
2023-11-12T10:29:28.386Z,2.70
2023-11-12T10:31:55.582Z,3.22
2023-11-12T10:34:25.929Z,3.13
2023-11-12T10:37:15.446Z,4.80
2023-11-12T10:39:45.067Z,4.47
2023-11-12T10:42:28.260Z,6.07
2023-11-12T10:44:59.251Z,5.70
2023-11-12T10:47:33.883Z,5.97
2023-11-12T10:50:01.561Z,10.20
2023-11-12T10:52:30.606Z,7.85
2023-11-12T10:54:59.818Z,8.80
2023-11-12T10:57:27.085Z,6.53
2023-11-12T10:59:55.719Z,6.75
2023-11-12T11:02:30.936Z,8.25
2023-11-12T11:04:57.844Z,7.13
2023-11-12T11:07:24.877Z,7.65
2023-11-12T11:09:52.198Z,7.70
2023-11-12T11:12:19.419Z,7.80
2023-11-12T11:14:47.656Z,8.52
2023-11-12T11:17:36.068Z,8.95
2023-11-12T11:20:02.876Z,8.95
2023-11-12T11:22:30.819Z,10.48
2023-11-12T11:24:58.130Z,11.13
2023-11-12T11:27:26.681Z,11.82
2023-11-12T11:30:13.610Z,13.10
2023-11-12T11:32:55.912Z,12.35
2023-11-12T11:35:23.511Z,13.52
2023-11-12T11:38:12.562Z,13.20
2023-11-12T11:40:46.309Z,16.20
2023-11-12T11:43:25.101Z,16.67
2023-11-12T11:46:14.950Z,16.92
2023-11-12T11:48:44.451Z,15.88
2023-11-12T11:51:36.206Z,16.60
2023-11-12T11:54:07.087Z,16.63
2023-11-12T11:56:35.190Z,17.00
2023-11-12T11:59:01.975Z,22.92
2023-11-12T12:01:28.541Z,17.15
2023-11-12T12:04:07.438Z,16.02
2023-11-12T12:06:34.933Z,15.63
2023-11-12T12:09:01.591Z,19.80
2023-11-12T12:11:28.190Z,19.00
2023-11-12T12:14:03.135Z,19.38
2023-11-12T12:16:34.195Z,18.20
2023-11-12T12:19:04.224Z,22.65
2023-11-12T12:21:32.565Z,22.60
2023-11-12T12:23:59.654Z,18.88
2023-11-12T12:26:29.419Z,18.83
2023-11-12T12:28:56.092Z,22.95
2023-11-12T12:31:28.682Z,23.83
2023-11-12T12:34:10.933Z,16.98
2023-11-12T12:36:37.881Z,18.92
2023-11-12T12:39:11.878Z,18.73
2023-11-12T12:41:41.194Z,18.48
2023-11-12T12:44:25.124Z,20.55
2023-11-12T12:46:56.419Z,22.15
2023-11-12T12:49:33.661Z,23.90
2023-11-12T12:52:04.859Z,21.40
2023-11-12T12:54:31.727Z,17.27
2023-11-12T12:57:02.185Z,20.95
2023-11-12T12:59:36.337Z,13.63
2023-11-12T13:02:04.055Z,17.27
2023-11-12T13:04:31.897Z,16.55
2023-11-12T13:07:02.875Z,24.88
2023-11-12T13:09:32.761Z,15.73
2023-11-12T13:11:59.531Z,17.67
2023-11-12T13:14:26.405Z,18.42
2023-11-12T13:16:54.488Z,16.83
2023-11-12T13:19:24.786Z,16.58
2023-11-12T13:21:57.267Z,14.88
2023-11-12T13:24:30.098Z,14.93
2023-11-12T13:26:57.350Z,14.52
2023-11-12T13:29:24.210Z,16.00
2023-11-12T13:31:52.146Z,17.77
2023-11-12T13:34:18.732Z,12.60
2023-11-12T13:36:45.370Z,16.13
2023-11-12T13:39:12.491Z,20.10
2023-11-12T13:41:39.119Z,13.80
2023-11-12T13:44:06.605Z,17.70
2023-11-12T13:46:33.491Z,13.50
2023-11-12T13:49:02.987Z,12.45
2023-11-12T13:51:31.653Z,14.90
2023-11-12T13:53:58.900Z,15.25
2023-11-12T13:56:25.661Z,15.57
2023-11-12T13:58:54.127Z,17.38
2023-11-12T14:01:23.415Z,15.90
2023-11-12T14:03:50.342Z,16.30
2023-11-12T14:06:16.901Z,16.75
2023-11-12T14:08:44.316Z,19.10
2023-11-12T14:11:13.104Z,17.50
2023-11-12T14:13:44.909Z,21.67
2023-11-12T14:16:14.017Z,21.27
2023-11-12T14:18:41.137Z,16.20
2023-11-12T14:21:10.310Z,20.75
2023-11-12T14:23:40.899Z,17.30
2023-11-12T14:26:09.315Z,19.23
2023-11-12T14:28:36.316Z,14.65
2023-11-12T14:31:07.925Z,16.27
2023-11-12T14:36:01.649Z,17.33
2023-11-12T14:38:28.137Z,19.63
2023-11-12T14:40:55.029Z,19.20
2023-11-12T14:43:21.522Z,18.40
2023-11-12T14:45:48.576Z,18.55
2023-11-12T14:48:16.100Z,18.33
2023-11-12T14:50:42.595Z,21.10
2023-11-12T14:53:09.225Z,17.25
2023-11-12T14:55:37.931Z,18.17
2023-11-12T14:58:06.257Z,19.10
2023-11-12T15:00:34.281Z,19.80
2023-11-12T15:03:05.916Z,19.60
2023-11-12T15:08:00.272Z,18.10
2023-11-12T15:10:26.958Z,18.85
2023-11-12T15:12:53.632Z,17.27
2023-11-12T15:15:21.491Z,18.88
2023-11-12T15:17:48.370Z,18.15
2023-11-12T15:20:15.045Z,16.95
2023-11-12T15:22:43.122Z,18.95
2023-11-12T15:25:10.134Z,17.15
2023-11-12T15:27:36.773Z,20.08
2023-11-12T15:30:04.287Z,17.15
2023-11-12T15:32:30.954Z,15.98
2023-11-12T15:34:57.429Z,16.23
2023-11-12T15:37:23.926Z,16.88
2023-11-12T15:39:50.905Z,17.85
2023-11-12T15:42:18.307Z,18.08
2023-11-12T15:44:49.405Z,16.85
2023-11-12T15:47:19.405Z,18.83
2023-11-12T15:49:47.559Z,19.30
2023-11-12T15:52:14.960Z,21.85
2023-11-12T15:54:47.015Z,20.23
2023-11-12T15:57:13.772Z,16.63
2023-11-12T15:59:40.343Z,25.38
2023-11-12T16:02:06.978Z,20.90
2023-11-12T16:04:34.166Z,16.90
2023-11-12T16:07:00.796Z,22.30
2023-11-12T16:09:27.321Z,14.18
2023-11-12T16:11:53.935Z,14.82
2023-11-12T16:14:20.485Z,12.48
2023-11-12T16:16:47.010Z,15.27
2023-11-12T16:19:13.513Z,14.93
2023-11-12T16:21:40.122Z,15.20
2023-11-12T16:24:07.369Z,16.13
2023-11-12T16:26:34.007Z,17.27
2023-11-12T16:29:00.526Z,15.90
2023-11-12T16:31:28.862Z,19.75
2023-11-12T16:33:55.517Z,12.23
2023-11-12T16:36:22.507Z,16.20
2023-11-12T16:38:49.105Z,11.90
2023-11-12T16:41:15.668Z,13.15
2023-11-12T16:43:42.252Z,10.00
2023-11-12T16:46:09.865Z,10.55
2023-11-12T16:48:36.513Z,13.25
2023-11-12T16:51:04.310Z,12.05
2023-11-12T16:53:30.958Z,9.27
2023-11-12T16:55:58.551Z,10.35
2023-11-12T16:58:25.218Z,8.05
2023-11-12T17:00:52.748Z,11.13
2023-11-12T17:03:21.102Z,10.18
2023-11-12T17:05:47.775Z,9.13
2023-11-12T17:08:14.276Z,11.85
2023-11-12T17:10:40.871Z,9.50
2023-11-12T17:13:08.551Z,8.93
2023-11-12T17:15:35.249Z,12.13
2023-11-12T17:18:02.710Z,8.50
2023-11-12T17:20:29.283Z,11.93
2023-11-12T17:22:55.780Z,9.90
2023-11-12T17:25:22.428Z,8.38
2023-11-12T17:27:48.990Z,8.52
2023-11-12T17:30:15.701Z,6.82
2023-11-12T17:32:42.408Z,11.13
2023-11-12T17:35:11.348Z,10.48
2023-11-12T17:37:37.912Z,7.82
2023-11-12T17:40:05.392Z,11.63
2023-11-12T17:42:31.996Z,8.98
2023-11-12T17:44:58.615Z,10.13
2023-11-12T17:47:25.755Z,8.73
2023-11-12T17:49:56.679Z,10.85
2023-11-12T17:52:24.855Z,7.28
2023-11-12T17:54:51.712Z,9.35
2023-11-12T17:57:20.467Z,9.25
2023-11-12T17:59:47.076Z,11.35
2023-11-12T18:02:14.254Z,9.15
2023-11-12T18:04:41.140Z,6.57
2023-11-12T18:07:07.895Z,13.73
2023-11-12T18:09:34.506Z,5.97
2023-11-12T18:12:01.118Z,7.28
2023-11-12T18:14:27.702Z,8.25
2023-11-12T18:16:54.299Z,9.60
2023-11-12T18:19:20.950Z,9.88
2023-11-12T18:21:47.626Z,11.35
2023-11-12T18:24:14.241Z,12.88
2023-11-12T18:26:41.064Z,12.85
2023-11-12T18:29:07.688Z,8.40
2023-11-12T18:31:38.259Z,12.70
2023-11-12T18:34:06.425Z,9.20
2023-11-12T18:36:33.006Z,8.07
2023-11-12T18:38:59.588Z,9.60
2023-11-12T18:41:26.150Z,11.30
2023-11-12T18:43:52.816Z,9.90
2023-11-12T18:46:20.845Z,11.93
2023-11-12T18:48:47.513Z,11.10
2023-11-12T18:51:14.134Z,7.80
2023-11-12T18:53:40.615Z,10.50
2023-11-12T18:56:08.742Z,6.95
2023-11-12T18:58:35.921Z,9.05
2023-11-12T19:01:02.605Z,8.35
2023-11-12T19:03:30.338Z,9.48
2023-11-12T19:05:57.515Z,14.88
2023-11-12T19:08:24.069Z,9.50
2023-11-12T19:10:51.788Z,10.82
2023-11-12T19:13:18.298Z,7.30
2023-11-12T19:15:45.790Z,10.35
2023-11-12T19:18:14.531Z,8.48
2023-11-12T19:20:41.211Z,10.82
2023-11-12T19:23:08.094Z,6.63
2023-11-12T19:25:34.812Z,7.22
2023-11-12T19:28:04.617Z,6.32
2023-11-12T19:33:02.123Z,11.48
2023-11-12T19:35:31.978Z,9.35
2023-11-12T19:37:58.616Z,7.70
2023-11-12T19:40:26.577Z,6.20
2023-11-12T19:42:53.339Z,6.88
2023-11-12T19:45:21.094Z,7.80
2023-11-12T19:47:52.397Z,7.00
2023-11-12T19:50:19.599Z,7.72
2023-11-12T19:52:46.653Z,8.30
2023-11-12T19:55:15.832Z,10.05
2023-11-12T19:57:42.464Z,10.32
2023-11-12T20:00:11.013Z,7.03
2023-11-12T20:02:39.607Z,9.07
2023-11-12T20:05:07.407Z,8.40
2023-11-12T20:07:33.972Z,8.75
2023-11-12T20:10:00.814Z,9.25
2023-11-12T20:12:27.348Z,8.60
2023-11-12T20:14:53.821Z,8.48
2023-11-12T20:17:20.318Z,8.95
2023-11-12T20:19:47.282Z,8.65
2023-11-12T20:22:18.567Z,9.05
2023-11-12T20:24:45.392Z,11.15
2023-11-12T20:27:14.465Z,9.38
2023-11-12T20:29:41.090Z,8.80
2023-11-12T20:32:08.478Z,11.40
2023-11-12T20:34:35.031Z,6.55
2023-11-12T20:37:01.546Z,8.32
2023-11-12T20:39:28.088Z,7.30
2023-11-12T20:41:57.475Z,12.73
2023-11-12T20:44:24.860Z,9.18
2023-11-12T20:46:51.466Z,7.07
2023-11-12T20:49:18.916Z,9.63
2023-11-12T20:51:47.375Z,8.82
2023-11-12T20:54:14.801Z,6.68
2023-11-12T20:56:41.679Z,9.45
2023-11-12T20:59:13.647Z,5.32
2023-11-12T21:01:40.617Z,8.73
2023-11-12T21:04:11.485Z,4.47
2023-11-12T21:06:40.351Z,7.57
2023-11-12T21:09:09.124Z,6.78
2023-11-12T21:11:39.475Z,6.57
2023-11-12T21:14:17.686Z,5.75
2023-11-12T21:16:44.371Z,4.53
2023-11-12T21:19:11.608Z,8.32
2023-11-12T21:21:39.461Z,7.03
2023-11-12T21:24:09.156Z,5.70
2023-11-12T21:26:36.747Z,7.65
2023-11-12T21:29:03.534Z,5.40
2023-11-12T21:31:30.217Z,7.68
2023-11-12T21:33:56.810Z,6.47
2023-11-12T21:36:23.434Z,4.95
2023-11-12T21:38:50.031Z,6.47
2023-11-12T21:41:17.049Z,7.28
2023-11-12T21:43:43.656Z,6.10
2023-11-12T21:46:15.232Z,7.70
2023-11-12T21:48:42.000Z,6.13
2023-11-12T21:51:08.952Z,5.50
2023-11-12T21:53:37.221Z,4.53
2023-11-12T21:56:05.323Z,7.13
2023-11-12T21:58:33.084Z,7.40
2023-11-12T22:01:00.047Z,4.93
2023-11-12T22:03:27.749Z,7.20
2023-11-12T22:05:55.051Z,4.80
2023-11-12T22:08:24.979Z,8.35
2023-11-12T22:10:51.526Z,6.53
2023-11-12T22:13:21.607Z,5.07
2023-11-12T22:15:51.174Z,7.47
2023-11-12T22:18:24.513Z,8.98
2023-11-12T22:20:52.070Z,5.45
2023-11-12T22:23:18.784Z,5.35
2023-11-12T22:25:45.494Z,6.13
2023-11-12T22:28:14.983Z,5.00
2023-11-12T22:30:41.727Z,6.43
2023-11-12T22:33:08.485Z,5.60
2023-11-12T22:35:35.406Z,9.50
2023-11-12T22:38:03.190Z,6.75
2023-11-12T22:40:29.767Z,9.07
2023-11-12T22:42:56.307Z,9.43
2023-11-12T22:45:23.745Z,4.82
2023-11-12T22:47:50.413Z,7.18
2023-11-12T22:50:22.140Z,6.20
2023-11-12T22:52:48.893Z,7.38
2023-11-12T22:55:15.994Z,4.82
2023-11-12T22:57:44.821Z,7.32
2023-11-12T23:02:54.295Z,6.10
2023-11-12T23:05:20.877Z,5.00
2023-11-12T23:07:47.380Z,6.50
2023-11-12T23:10:14.864Z,10.43
2023-11-12T23:12:41.433Z,13.50
2023-11-12T23:15:09.242Z,9.40
2023-11-12T23:17:35.849Z,7.78
2023-11-12T23:20:04.022Z,7.22
2023-11-12T23:22:30.516Z,5.32
2023-11-12T23:24:57.085Z,6.90
2023-11-12T23:27:23.603Z,11.73
2023-11-12T23:29:50.222Z,7.18
2023-11-12T23:32:17.441Z,8.00
2023-11-12T23:34:44.985Z,8.68
2023-11-12T23:37:11.573Z,10.32
2023-11-12T23:39:38.542Z,5.75
2023-11-12T23:42:05.465Z,10.00
2023-11-12T23:44:31.999Z,6.90
2023-11-12T23:46:58.575Z,6.63
2023-11-12T23:49:25.096Z,11.98
2023-11-12T23:51:51.681Z,8.00
2023-11-12T23:54:18.237Z,5.63
2023-11-12T23:56:44.740Z,5.68
2023-11-12T23:59:13.649Z,6.50
